Weather observations for the past three days for
Ontario Municipal Airport
Metric (Imperial)
Date Time (mdt) Wind (kph) Vis. (km) Weather Sky Cond. Temperature (ºC) Relative Humidity Wind Chill (°C) Heat Index (°C) Pressure Precipitation (cm)
Air Dwpt 6 hour altimeter (cm) sea level (mb) 1 hr 3 hr 6 hr
Max. Min.
06 02:53 W 6 16.09 Fair CLR 12.2 5 62% 76.12 1013.9
06 01:53 Calm 16.09 Fair CLR 12.8 5 59% 76.05 1013.1
06 00:53 Calm 16.09 Fair CLR 14.4 5 53% 76.02 1012.5
05 23:53 NE 6 16.09 Fair CLR 14.4 4.4 27.8 14.4 51% 75.92 1011.4
05 22:53 N 11 16.09 Fair CLR 17.8 3.9 40% 75.87 1010.5
05 21:53 N 15 16.09 Fair CLR 19.4 5 39% 75.79 1009.5
05 20:53 NW 24 16.09 Fair CLR 22.2 5 33% 75.72 1008.1
05 19:53 NW 26 G 37 16.09 Fair CLR 25 5 28% 25 75.64 1007.3
05 18:53 NW 30 G 43 16.09 Overcast OVC110 25 3.9 26% 25 75.62 1007.1
05 17:53 N 15 16.09 Fair CLR 27.8 3.3 28.3 22.8 21% 27 75.62 1006.7
05 16:53 N 13 16.09 Partly Cloudy SCT100 26.7 1.1 19% 26 75.64 1006.9
05 15:53 NE 9 16.09 Partly Cloudy SCT110 26.7 2.2 20% 26 75.67 1007.4
05 14:53 Vrbl 6 16.09 A Few Clouds FEW100 26.1 1.7 20% 26 75.72 1007.9
05 13:53 Calm 16.09 Fair CLR 25.6 4.4 26% 25 75.74 1008.6
05 12:53 Vrbl 7 16.09 Fair CLR 23.3 4.4 29% 75.77 1009.2
05 11:53 SE 9 16.09 Fair CLR 22.8 5.6 23.3 13.3 33% 75.79 1009.3
05 10:53 SE 9 16.09 Fair CLR 21.7 6.7 38% 75.79 1009.2
05 09:53 Vrbl 9 16.09 Fair CLR 20.6 6.7 41% 75.77 1008.8
05 08:53 Calm 16.09 Fair CLR 18.9 6.1 43% 75.74 1008.6
05 07:53 N 7 16.09 Fair CLR 16.1 5.6 50% 75.69 1007.7
05 06:53 N 13 16.09 Fair CLR 14.4 4.4 51% 75.62 1006.8
05 05:53 N 9 16.09 Fair CLR 14.4 3.9 18.9 13.3 50% 75.57 1005.9
05 04:53 NW 13 16.09 Fair CLR 16.1 3.9 44% 75.51 1005.4
05 03:53 N 17 16.09 Fair CLR 17.8 3.9 40% 75.46 1004.6
05 02:53 N 17 16.09 Fair CLR 17.2 4.4 43% 75.46 1004.6
05 01:53 NW 19 16.09 Fair CLR 16.7 3.3 41% 75.49 1005.0
05 00:53 N 19 16.09 Fair CLR 16.7 2.8 40% 75.46 1004.6
04 23:53 N 15 16.09 Fair CLR 18.3 2.8 29.4 17.8 36% 75.44 1004.3
04 22:53 NW 19 16.09 Fair CLR 19.4 2.8 33% 75.41 1004.0
04 21:53 NW 30 16.09 Fair CLR 22.2 2.2 27% 75.34 1003.1
04 20:53 NW 26 16.09 Fair CLR 23.3 3.3 27% 75.29 1002.6
04 19:53 NW 22 16.09 Fair CLR 25.6 3.3 24% 25 75.29 1002.4
04 18:53 N 22 16.09 Fair CLR 27.8 1.7 18% 27 75.31 1002.8
04 17:53 N 22 16.09 Fair CLR 29.4 2.8 30 25 18% 28 75.31 1002.7
04 16:53 N 24 G 43 16.09 Fair CLR 29.4 1.7 17% 28 75.36 1003.4
04 14:53 NW 19 G 31 16.09 Fair CLR 28.3 1.7 18% 27 75.46 1004.7
04 13:53 Calm 16.09 Fair CLR 27.2 0.6 18% 26 75.51 1005.4
04 12:53 N 15 16.09 Fair CLR 26.7 1.1 19% 26 75.57 1006.1
04 11:53 Vrbl 9 16.09 Fair CLR 25 2.2 25.6 11.7 23% 25 75.62 1006.6
04 10:53 NW 17 16.09 Fair CLR 23.9 2.8 25% 25 75.64 1007.0
04 09:53 NW 22 16.09 Fair CLR 21.1 3.9 32% 75.67 1007.6
04 08:53 W 13 16.09 Fair CLR 17.8 4.4 41% 75.69 1008.0
04 07:53 W 15 16.09 Fair CLR 13.9 3.9 51% 75.69 1007.8
04 06:53 W 9 16.09 Fair CLR 12.2 3.3 55% 75.67 1007.5
04 05:53 W 9 16.09 Fair CLR 15 3.3 18.3 11.7 46% 75.62 1006.8
04 04:53 W 9 16.09 Fair CLR 12.2 3.9 57% 75.62 1006.8
04 03:53 W 6 16.09 Fair CLR 14.4 3.9 50% 75.64 1006.9
04 02:53 N 7 16.09 Fair CLR 16.1 3.9 44% 75.64 1007.0
04 01:53 NW 11 16.09 Fair CLR 16.1 3.9 44% 75.64 1007.2
04 00:53 NW 9 16.09 Fair CLR 16.7 3.3 41% 75.64 1007.1
03 23:53 NW 17 16.09 Fair CLR 18.9 2.8 29.4 18.9 34% 75.62 1007.0
03 22:53 N 11 16.09 Fair CLR 20 2.2 31% 75.62 1007.0
03 21:53 NW 24 16.09 Fair CLR 20.6 2.8 31% 75.57 1006.5
03 20:53 NW 13 16.09 Fair CLR 20.6 4.4 35% 75.54 1006.5
03 19:53 N 17 16.09 Fair CLR 26.7 2.2 20% 26 75.54 1006.5
03 18:53 NW 13 16.09 Fair CLR 28.3 -0.6 15% 27 75.59 1007.1
03 17:53 NW 22 16.09 Fair CLR 29.4 -0.6 29.4 22.2 14% 28 75.64 1007.4
03 16:53 N 13 16.09 Fair CLR 29.4 -1.1 14% 28 75.69 1008.4
03 15:53 NE 13 16.09 Fair CLR 28.9 -2.2 13% 27 75.77 1009.4
03 14:53 NW 15 16.09 Fair CLR 28.3 1.1 17% 27 75.84 1010.2
03 13:53 Vrbl 6 16.09 Fair CLR 26.1 3.3 23% 26 75.9 1011.1
03 12:53 Calm 16.09 Fair CLR 24.4 4.4 27% 25 75.97 1012.1
03 11:53 Calm 16.09 Fair CLR 22.2 5.6 22.2 4.4 34% 76.02 1012.8
03 10:53 Calm 16.09 Fair CLR 20 5 38% 76.07 1013.5
03 09:53 Calm 16.09 Fair CLR 15.6 3.9 46% 76.1 1014.2
03 08:53 Calm 16.09 Fair CLR 11.7 3.3 57% 76.12 1014.6
03 07:53 NW 6 16.09 Fair CLR 7.2 2.8 74% 76.12 1014.4
03 06:53 NW 7 16.09 Fair CLR 5.6 1.7 76% 4 76.1 1014.0
03 05:53 SW 6 16.09 Fair CLR 6.7 2.2 13.3 6.1 73% 76.1 1014.0
03 04:53 W 6 16.09 Fair CLR 6.1 2.8 80% 76.07 1013.7
03 03:53 W 7 16.09 Fair CLR 7.8 2.8 71% 7 76.07 1013.7
Date Time (mdt) Wind (kph) Vis. (km) Weather Sky Cond. Air Dwpt Max. Min. Relative Humidity Wind Chill (°C) Heat Index (°C) altimeter (cm) sea level (mb) 1 hr 3 hr 6 hr
6 hour
Temperature (ºC) Pressure Precipitation (cm)